x

9442396 - La Push, Wa (lapw1) Weather Station

4:30 - Tue 28th Apr 2015 All times are PDT. -7 hours from GMT.

  • Wind
    11mph, 17mph gusts
  • Sea Temp 51°f
  • Ar Temp 53°f
  • Sea Pressure 1015.6mb
  • 9442396 - La Push, Wa
  • 9442396 - La Push, Wa

More Historic Weather Station data

Upgrade to MSW Pro to gain access to the past 30 days of data for over 8000 Wavebouys and Weather Stations around the globe.

Join Pro

Comparision Forecast

View Surf forecast
   
Ter 04/28 4:30 11 17 mph 1015.6mb 51f 53f
4:24 11 21 mph 1015.6mb 51f 53f
4:18 13 21 mph 1015.5mb 51f 54f
4:12 14 22 mph 1015.5mb 51f 54f
4:06 13 20 mph - - 54f
4:00 10 16 mph - - 54f
3:36 13 22 mph 1015.4mb 51f 55f
3:30 15 22 mph 1015.3mb 52f 55f
3:24 14 22 mph 1015.3mb 52f 55f
3:18 13 16 mph 1015.3mb 52f 55f
3:12 13 22 mph 1015.4mb 52f 55f
3:06 13 20 mph 1015.4mb 52f 55f
3:00 15 24 mph 1015.3mb 52f 55f
2:36 11 20 mph 1014.9mb 51f 55f
2:30 8 15 mph 1014.9mb 51f 55f
2:24 9 14 mph 1014.9mb 51f 55f
2:18 8 11 mph 1014.8mb 51f 55f
2:12 6 10 mph 1014.8mb 51f 55f
2:06 5 13 mph 1014.5mb 51f 55f
2:00 5 9 mph 1014.5mb 51f 55f
1:36 6 8 mph - - 55f
1:30 3 6 mph 1014.4mb 50f 54f
1:24 5 9 mph 1014.2mb 50f 55f
1:18 6 9 mph 1014.1mb 50f 55f
1:12 3 6 mph 1014.2mb 50f 55f
1:06 2 6 mph 1014.1mb 50f 54f
1:00 2 7 mph 1014.2mb 50f 55f
12:36 3 8 mph 1013.9mb 50f 55f
12:30 6 8 mph 1013.8mb 50f 55f
12:24 6 8 mph 1013.7mb 50f 55f
12:18 6 8 mph 1013.7mb 50f 55f
12:12 6
mph
- - 55f
12:06 6 9 mph 1013.5mb 50f 55f
12:00 7 9 mph 1013.5mb 50f 55f
Seg 04/27 11:36 5 6 mph - - 55f
11:30 2
mph
- - 54f
11:24  -  mph 1013mb 50f 54f
11:18  -  2 mph - - 54f
11:12 1 2 mph - - 54f
11:06 2 5 mph - - 54f
11:00 3 5 mph 1012.5mb 50f 54f
10:36 9 10 mph 1012.2mb 50f 56f
10:30 7 15 mph 1012.1mb 50f 59f
10:24 11 14 mph 1012.1mb 50f 58f
10:18 8 11 mph 1011.7mb 50f 59f
10:12 10 13 mph 1011.2mb 50f 58f
10:06 7 9 mph 1011.2mb 50f 58f
10:00 7 9 mph - - 58f
9:36 7 10 mph 1010.8mb 50f 59f
9:30 6 9 mph 1010.9mb 50f 59f
9:24 8 11 mph 1010.9mb 50f 60f
9:18 8 11 mph 1010.9mb 50f 60f
9:12 7 11 mph - - 60f
9:06 8 13 mph 1011mb 50f 61f
9:00 9 11 mph 1011mb 50f 61f
8:36 8 11 mph 1011.1mb 50f 62f
8:30 7 9 mph 1011.2mb 50f 62f
8:24 7 9 mph - - 63f
8:18 6 10 mph 1011.3mb 50f 63f
8:12 6 13 mph 1011.3mb 50f 64f
8:06 6 11 mph 1011.4mb 50f 64f
8:00 6 9 mph 1011.4mb 50f 64f
7:36 3 5 mph 1011.8mb 50f 63f
7:30 3 5 mph 1011.9mb 50f 62f
7:24 2 3 mph 1012.1mb 50f 61f
7:18 2
mph
1012.2mb 50f 59f
7:12 2
mph
- - 59f
7:06  -  2 mph 1012.6mb 50f 57f
7:00  -  1 mph 1012.7mb 50f 58f
6:36 5 6 mph 1013.4mb 50f 55f
6:30 6 7 mph 1013.5mb 50f 56f
6:24 6
mph
- - 56f
6:18 6 7 mph 1013.8mb 50f 56f
6:12 7 9 mph 1014mb 50f 55f
6:06 7 8 mph 1014.2mb 50f 55f
6:00 8 9 mph 1014.4mb 50f 55f
5:36 9 11 mph 1015mb 50f 55f
5:30 8 10 mph 1015.2mb 50f 55f
5:24 8 11 mph 1015.4mb 50f 55f
5:18 9 11 mph 1015.5mb 49f 55f
5:12 8 11 mph 1015.5mb 49f 55f
5:06 9 11 mph - - 55f
5:00 9 11 mph - - 55f
4:36 7 8 mph 1016.4mb 49f 55f
4:30 7 8 mph 1016.5mb 49f 55f
4:24 6
mph
1016.5mb 49f 55f
4:18 5 6 mph 1016.5mb 49f 55f
4:12 5 6 mph 1016.7mb 49f 55f
4:06 5 6 mph 1016.8mb 49f 55f
4:00 3 5 mph 1016.9mb 49f 55f
3:36 2 3 mph 1017.7mb 49f 56f
3:30 3 5 mph 1017.9mb 49f 56f
3:24  -  mph 1018mb 49f -
3:18 3 6 mph 1018.2mb 49f 56f
3:12 5 6 mph - - 56f
3:06 5 7 mph 1018.6mb 49f 56f
3:00 6 8 mph 1018.8mb 49f 56f
2:36 7 9 mph 1019.2mb 49f 56f
2:30 7 8 mph 1019.3mb 49f 57f
2:24 6 9 mph 1019.4mb 49f 57f
2:18 7 9 mph 1019.6mb 49f 56f
2:12 8 11 mph 1019.7mb 49f 57f
2:06 9 11 mph 1019.9mb 49f 56f
2:00 8 13 mph 1020mb 49f 57f
1:36 10 15 mph 1020.2mb 49f 57f
1:30 9 14 mph 1020.3mb 49f 57f
1:24 10 15 mph 1020.5mb 49f 57f
1:18 10 14 mph 1020.7mb 49f 57f
1:12 9 13 mph 1020.8mb 49f 57f
1:06 8 11 mph 1020.9mb 49f 57f
1:00 9 11 mph 1020.9mb 49f 57f
12:36 9 13 mph 1021.2mb 49f 56f
12:30 9 15 mph 1021.2mb 49f 57f
12:24 11 14 mph 1021.3mb 49f 57f
12:18 8 14 mph 1021.4mb 49f 57f
12:12 9 15 mph 1021.4mb 49f 57f
12:06 10 20 mph 1021.4mb 49f 57f
12:00 11 16 mph 1021.4mb 49f 57f
11:36 7 13 mph 1021.7mb 49f 57f
11:30 9 16 mph 1021.7mb 49f 56f
11:24 9 14 mph 1021.7mb 49f 56f
11:18 10 20 mph 1021.7mb 49f 56f
11:12 9 11 mph 1021.8mb 49f 56f
11:06 8 13 mph 1021.9mb 50f 56f
11:00 7 13 mph 1021.9mb 49f 56f
10:36 8 17 mph 1022.2mb 49f 55f
10:30 7 13 mph 1022.2mb 50f 55f
10:24 7 13 mph 1022.2mb 49f 55f
10:18 8 13 mph 1022.2mb 49f 54f
10:12 7 15 mph 1022.3mb 49f 54f
10:06 8 15 mph 1022.4mb 49f 54f
10:00 7 14 mph 1022.5mb 49f 54f
9:36 10 17 mph 1022.8mb 49f 54f
9:30 10 18 mph 1022.8mb 49f 54f
9:24 11 22 mph 1022.9mb 49f 54f
9:18 9 18 mph 1022.8mb 49f 54f
9:12 10 22 mph 1022.9mb 49f 54f
9:06 8 15 mph 1022.9mb 49f 53f
9:00 9 20 mph 1022.9mb 49f 53f
8:36 8 17 mph 1022.8mb 49f 53f
8:30 8 17 mph 1022.8mb 49f 53f
8:24 10 16 mph 1022.9mb 49f 53f
8:18 6 15 mph 1022.9mb 49f 53f
8:12 8 17 mph 1022.9mb 49f 53f
8:06 9 17 mph - - 53f
8:00 13 18 mph - - 53f
7:36 10 18 mph 1022.5mb 49f 53f
7:30 10 20 mph 1022.5mb 49f 53f
7:24 9 16 mph 1022.5mb 49f 53f
7:18 9 15 mph 1022.4mb 49f 53f
7:12 11 20 mph 1022.4mb 49f 53f
7:06 11 22 mph 1022.3mb 49f 53f
7:00 11 17 mph 1022.4mb 49f 53f
6:36 10 20 mph 1022.4mb 49f 53f
6:30 9 17 mph 1022.5mb 49f 53f
6:24 7 20 mph 1022.4mb 49f 53f
6:18 10 15 mph 1022.4mb 49f 53f
6:12 8 14 mph 1022.5mb 49f 53f
6:06 9 15 mph 1022.3mb 49f 53f
6:00 10 17 mph 1022.2mb 49f 53f
5:36 7 13 mph 1022.2mb 49f 53f
5:30 7 15 mph 1022.2mb 49f 53f
5:24 9 15 mph 1022.2mb 49f 53f
5:18 8 14 mph 1022.2mb 49f 53f
5:12 10 20 mph 1022.2mb 49f 53f
5:06 10 17 mph 1022.1mb 49f 53f
5:00 8 13 mph 1022.1mb 49f 53f
4:54 8 15 mph 1022.1mb 49f 53f
4:48 7 18 mph 1022.1mb 49f 53f
4:36 10 16 mph 1022.1mb 49f 53f
4:30 9 18 mph 1022.2mb 49f 53f
4:24  -  mph 1022.2mb 49f -
4:18 9 15 mph 1022.2mb 49f 53f
4:12 9 17 mph 1022.2mb 49f 53f
4:06 9 16 mph 1022.4mb 49f 53f
4:00 13 18 mph 1022.4mb 49f 53f
3:54 7 16 mph 1022.3mb 49f 53f
3:48 8 15 mph 1022.3mb 49f 53f
3:36 9 15 mph 1022.3mb 48f 53f
3:30 8 14 mph 1022.4mb 48f 53f
3:24 6 15 mph 1022.3mb 48f 53f
3:18 7 13 mph 1022.3mb 48f 53f
3:12 7 14 mph 1022.4mb 48f 53f
3:06 10 15 mph 1022.2mb 48f 53f
3:00 9 13 mph 1022.3mb 48f 53f
2:54 8 16 mph 1022.3mb 48f 52f
2:48 7 11 mph 1022.3mb 48f 52f
2:36 9 18 mph 1022.5mb 48f 53f
2:30 10 14 mph 1022.6mb 48f 53f
2:24 7 15 mph 1022.5mb 48f 52f
2:18 8 16 mph 1022.3mb 48f 52f
2:12 9 15 mph 1022.3mb 48f 52f
2:06 9 14 mph 1022.3mb 48f 52f
2:00 8 14 mph 1022.3mb 48f 53f
1:54 8 20 mph 1022.3mb 48f 53f
1:48 9 15 mph 1022.4mb 48f 53f
1:36 9 16 mph 1022.4mb 48f 53f
1:30 8 13 mph 1022.4mb 48f 53f
1:24 8 15 mph 1022.4mb 48f 53f
1:18 9 15 mph 1022.3mb 48f 53f
1:12 9 16 mph - - 53f
1:06 8 15 mph 1022.3mb 48f 53f
1:00 6 17 mph 1022.2mb 48f 53f
12:54 10 17 mph 1022.1mb 48f 53f
12:48 7 13 mph 1022.2mb 48f 53f
12:36 10 15 mph 1022.1mb 49f 53f
12:30 8 15 mph 1022.1mb 49f 53f
12:24 9 16 mph 1022.2mb 49f 53f
12:18 10 20 mph 1022.4mb 49f 53f
12:12 7 13 mph 1022.3mb 49f 53f
12:06 7 15 mph 1022.2mb 49f 53f
12:00 11 20 mph 1022.1mb 49f 53f
Dom 04/26 11:54 8 13 mph - - 53f
11:48 9 17 mph - - 53f
11:36 9 16 mph - - 53f
11:30 9 14 mph 1022.1mb 49f 53f
11:24 9 16 mph - - 53f
11:18 7 15 mph 1022.1mb 49f 53f
11:12 7 14 mph - - 53f
11:06 7 13 mph 1022mb 49f 53f
11:00 7 15 mph - - 53f
10:54 7 13 mph - - 53f
10:48 7 11 mph 1022.1mb 49f 53f
10:36 6 11 mph 1022.2mb 49f 53f
10:30 6 13 mph 1022.2mb 49f 53f
10:24 7 11 mph 1022.3mb 49f 53f
10:18 5 10 mph 1022.3mb 49f 53f
10:12 6 13 mph 1022.2mb 49f 53f
10:06 8 18 mph 1022mb 49f 53f
10:00 9 14 mph 1022.1mb 49f 53f
9:54 8 16 mph 1022.1mb 49f 53f
9:48 8 11 mph 1022.1mb 49f 53f
9:36 8 15 mph 1022.1mb 49f 53f
9:30 7 17 mph 1022.1mb 49f 53f
9:24 11 15 mph 1022.1mb 49f 53f
9:18 10 17 mph 1022.1mb 49f 54f
9:12 10 18 mph 1022mb 49f 54f
9:06 11 18 mph 1022mb 49f 54f
9:00 11 18 mph 1022mb 49f 53f
8:54  -  mph 1021.7mb 49f -
8:48 7 16 mph 1021.6mb 49f 53f
8:36 10 17 mph 1021.4mb 48f 53f
8:30 11 18 mph 1021.2mb 48f 53f
8:24 10 16 mph 1021.3mb 48f 53f
8:18 10 17 mph 1021.4mb 49f 53f
8:12 10 17 mph 1021.4mb 48f 53f
8:06 10 18 mph 1021.2mb 49f 53f
8:00 14 22 mph 1021mb 49f 53f
7:54 8 18 mph 1021.1mb 49f 52f
7:48 9 16 mph 1021mb 49f 52f
7:36 11 18 mph 1021.1mb 49f 52f
7:30 7 18 mph 1021.2mb 49f 52f
7:24 11 20 mph 1021.2mb 49f 52f
7:18 13 18 mph 1021.3mb 49f 52f
7:12 10 17 mph 1021.3mb 49f 52f
7:06 7 20 mph 1021.4mb 49f 52f
7:00 10 17 mph 1021.3mb 49f 52f
6:54 8 14 mph 1021.4mb 49f 52f
6:48 9 16 mph 1021.5mb 49f 52f
6:36 11 17 mph 1021.5mb 49f 52f
6:30 9 15 mph 1021.6mb 49f 52f
6:24 5 21 mph 1021.6mb 49f 52f
6:18 7 15 mph 1021.6mb 49f 52f
6:12 9 15 mph 1021.6mb 49f 52f
6:06 8 18 mph 1021.6mb 49f 52f
6:00 11 22 mph 1021.5mb 49f 51f
5:54 11 17 mph 1021.7mb 49f 51f
5:48 10 22 mph 1021.8mb 49f 51f
5:36 13 21 mph 1021.6mb 49f 51f
5:30 11 18 mph 1021.6mb 49f 52f
5:24 13 21 mph 1021.6mb 49f 52f
5:18 13 21 mph 1021.7mb 49f 52f
5:12 6 15 mph 1021.7mb 49f 52f
5:06 11 26 mph 1021.8mb 48f 52f
5:00 11 20 mph 1021.8mb 48f 52f
4:54 11 20 mph 1021.9mb 48f 52f
4:48 13 20 mph 1022mb 48f 52f
4:36 7 18 mph 1021.7mb 48f 52f
4:30 10 15 mph 1021.8mb 48f 52f
4:24 13 23 mph 1021.7mb 48f 52f
4:18 8 18 mph 1021.7mb 48f 52f
4:12 9 18 mph 1021.6mb 48f 52f
4:06 14 24 mph 1021.6mb 48f 52f
4:00 10 16 mph 1021.5mb 48f 51f
3:54 8 14 mph 1021.7mb 48f 51f
3:48 9 18 mph 1021.7mb 48f 51f
3:36 8 16 mph 1021.7mb 48f 51f
3:30 7 15 mph 1021.7mb 48f 51f
3:24 8 18 mph 1021.7mb 48f 51f
3:18 14 24 mph 1021.8mb 48f 51f
3:12 13 26 mph 1021.8mb 48f 51f
3:06 9 16 mph 1021.6mb 48f 51f
3:00 8 14 mph 1021.6mb 48f 51f
2:54 8 17 mph 1021.5mb 48f 51f
2:48 11 18 mph 1021.5mb 49f 51f
2:36 10 22 mph - - 51f
2:30 10 17 mph - - 51f
2:24 11 21 mph 1021.6mb 49f 51f
2:18 13 24 mph 1021.5mb 49f 51f
2:12 15 24 mph 1021.6mb 49f 51f
2:06 11 23 mph 1021.6mb 49f 51f
2:00 14 26 mph 1021.6mb 49f 51f
1:54 11 20 mph 1021.5mb 49f 51f
1:48 13 22 mph 1021.4mb 49f 51f
1:36 15 25 mph 1021.3mb 48f 50f
1:30 11 22 mph 1021.3mb 48f 50f
1:24 11 24 mph 1021.4mb 48f 50f
1:18 13 20 mph 1021.5mb 49f 50f
1:12 15 25 mph 1021.5mb 49f 50f
1:06 11 24 mph 1021.6mb 49f 51f
1:00 17 25 mph 1021.6mb 48f 51f
12:54 14 22 mph 1021.7mb 48f 51f
12:48 16 24 mph 1021.7mb 48f 51f
12:36  -  mph 1021.7mb 49f -
12:30 11 18 mph 1021.7mb 49f 51f
12:24 14 24 mph 1021.8mb 49f 51f
12:18 9 20 mph 1021.8mb 49f 51f
12:12 13 17 mph 1021.7mb 49f 51f
12:06 10 20 mph 1021.6mb 49f 51f
12:00 14 23 mph 1021.6mb 49f 51f
11:54 14 23 mph 1021.5mb 49f 51f
11:48 14 26 mph 1021.5mb 49f 50f
11:36 9 17 mph 1021.6mb 49f 50f
11:30 14 24 mph 1021.6mb 49f 51f
11:24 17 23 mph 1021.5mb 49f 50f
11:18 20 26 mph 1021.4mb 49f 50f
11:12 13 24 mph 1021.2mb 49f 50f
11:06 17 25 mph 1021.2mb 49f 50f
11:00 15 25 mph 1021.3mb 48f 50f
10:54 15 22 mph 1021.2mb 48f 50f
10:48 13 18 mph 1021.1mb 48f 50f
10:36 10 18 mph 1021.1mb 48f 50f
10:30 7 17 mph 1021.1mb 48f 49f
10:24 8 14 mph 1021mb 48f 49f
10:18 6 14 mph 1021.1mb 48f 50f
10:12 6 9 mph 1021.1mb 48f 49f
10:06 5 9 mph 1021.2mb 48f 49f
10:00 5 9 mph 1021.1mb 48f 49f
9:54 6 11 mph 1021mb 48f 48f
9:48 8 14 mph 1021mb 48f 48f
9:36 6 8 mph 1021.1mb 49f 47f
9:30 5 7 mph 1021mb 49f 46f
9:24 6 10 mph 1020.9mb 49f 46f
9:18 5 7 mph 1020.7mb 49f 45f
9:12 7 8 mph 1020.6mb 49f 44f
9:06 5 8 mph 1020.6mb 49f 44f
9:00 6 9 mph 1020.5mb 48f 44f
8:54 6 9 mph 1020.4mb 48f 44f
8:48 7 8 mph 1020.3mb 48f 43f
8:36 6 8 mph 1020.4mb 48f 43f
8:30 6 7 mph 1020.3mb 48f 43f
8:24 6 7 mph 1020.3mb 48f 43f
8:18 5 8 mph 1020.1mb 48f 42f
8:12  -  mph 1020mb 48f -
8:06 6 8 mph 1020mb 48f 42f
8:00 7 9 mph 1019.9mb 48f 42f
7:54 7 9 mph 1019.9mb 48f 42f
7:48 6 10 mph 1019.8mb 48f 42f
7:36 7 10 mph 1019.6mb 48f 41f
7:30 6 8 mph 1019.6mb 48f 41f
7:24 6 8 mph 1019.8mb 48f 41f
7:18 6 10 mph 1019.8mb 48f 41f
7:12 6 8 mph 1019.8mb 48f 41f
7:06 7 10 mph 1019.9mb 48f 41f
7:00 7 9 mph 1019.9mb 48f 41f
6:54 6 8 mph 1019.7mb 48f 41f
6:48 7 8 mph 1019.5mb 48f 41f
6:36 7 9 mph 1019.4mb 48f 41f
6:30 7 10 mph 1019.4mb 48f 41f
6:24 8 10 mph 1019.3mb 48f 41f
6:18 7 9 mph 1019.3mb 48f 41f
6:12 7 8 mph 1019.3mb 48f 41f
6:06 6 8 mph 1019.4mb 48f 41f
6:00 8 9 mph 1019.3mb 48f 41f
5:54 6 8 mph 1019.3mb 48f 41f
5:48 6 9 mph 1019.3mb 48f 41f
5:36 6 8 mph 1019.4mb 48f 41f
5:30 6 9 mph 1019.4mb 48f 41f
5:24 6 8 mph 1019.4mb 48f 41f
5:18 6 8 mph 1019.4mb 48f 41f
5:12 7 9 mph 1019.3mb 48f 41f
5:06 7 8 mph 1019.3mb 48f 40f
5:00 7 10 mph 1019.2mb 48f 40f
4:54 7 9 mph 1019.1mb 48f 40f
4:48 8 9 mph 1019mb 48f 40f
4:36  -  mph 1018.9mb 48f -
4:30 7 8 mph 1018.9mb 48f 40f
4:24 7 8 mph 1018.8mb 48f 40f
4:18 6 10 mph 1018.8mb 48f 40f
4:12 8 9 mph 1018.8mb 48f 40f
4:06 5 10 mph 1018.8mb 48f 40f
4:00 7 9 mph 1018.7mb 48f 40f
3:54 6 8 mph 1018.8mb 48f 40f
3:48 7 8 mph 1018.7mb 48f 40f
3:36 5 7 mph 1018.8mb 48f 40f
3:30 6 8 mph 1018.8mb 48f 40f
3:24 6 10 mph 1018.7mb 48f 40f
3:18 7 10 mph 1018.7mb 48f 40f
3:12 7 9 mph 1018.8mb 48f 40f
3:06 6 8 mph 1018.8mb 48f 40f
3:00 7 9 mph 1018.8mb 48f 40f
2:54 8 9 mph 1018.7mb 48f 40f
2:48 7 9 mph 1018.8mb 48f 40f
2:36 8 10 mph 1018.8mb 48f 40f
2:30 8 10 mph 1018.7mb 48f 40f
2:24 8 10 mph 1018.7mb 48f 40f
2:18 8 10 mph 1018.6mb 48f 40f
2:12 8 10 mph 1018.6mb 48f 40f
2:06 9 11 mph 1018.6mb 48f 40f
2:00  -  mph 1018.6mb 48f -
1:54 7 9 mph 1018.7mb 49f 40f
1:48 8 10 mph 1018.7mb 49f 40f
1:36 7 9 mph 1018.7mb 49f 40f
1:30 9 11 mph 1018.7mb 49f 41f
1:24 8 10 mph 1018.8mb 49f 41f
1:18 8 9 mph 1018.7mb 49f 40f
1:12 8 10 mph 1018.7mb 49f 41f
1:06 8 10 mph 1018.7mb 49f 41f
1:00 8 10 mph 1018.6mb 49f 41f
12:54 7 10 mph 1018.6mb 49f 41f
12:48 8 10 mph 1018.5mb 49f 41f
12:36 8 10 mph 1018.5mb 49f 41f
12:30 7 9 mph 1018.4mb 49f 41f
12:24 8 9 mph 1018.5mb 49f 41f
12:18 7 9 mph 1018.5mb 49f 41f
12:12 7 9 mph 1018.5mb 49f 41f
12:06 8 9 mph 1018.4mb 49f 41f
12:00 8 9 mph 1018.5mb 49f 41f
Sáb 04/25 11:54 7 9 mph - - 42f
11:48 7 9 mph - - 42f
11:36 7 9 mph 1018.6mb 49f 42f
11:30 8 9 mph - - 42f
11:24 7 9 mph - - 42f
11:18 7 9 mph 1018.5mb 48f 42f
11:12 7 8 mph 1018.4mb 48f 42f
11:06 6 8 mph - - 42f
11:00  -  mph 1018.2mb 48f -
10:54 6 8 mph - - 42f
10:48 7 8 mph 1018.2mb 48f 42f
10:36 6 8 mph 1018.3mb 48f 43f
10:30 6 8 mph 1018.2mb 48f 43f
10:24 7 9 mph 1018.1mb 48f 43f
10:18 6 8 mph 1018.1mb 48f 43f
10:12 7 8 mph - - 44f
10:06 6
mph
1018mb 48f 44f
10:00 5 6 mph 1018mb 48f 44f
9:54 6 7 mph 1017.9mb 48f 44f
9:48 6 7 mph 1018mb 48f 44f
9:36 5 6 mph 1018.1mb 48f 44f
9:30 5 6 mph 1018mb 48f 45f
9:24 5 7 mph 1017.9mb 48f 45f
9:18 6
mph
1017.9mb 48f 45f
9:12 5 6 mph 1017.8mb 48f 45f
9:06 3 5 mph - - 45f
9:00 3 5 mph - - 46f
8:54 3
mph
1017.8mb 48f 46f
8:48 1 2 mph 1017.9mb 48f 48f
8:36 2 3 mph 1017.9mb 48f 49f
8:30 3
mph
1017.9mb 48f 50f
8:24 3 5 mph 1017.9mb 48f 50f
8:18 3 5 mph 1017.8mb 48f 50f
8:12 3 5 mph 1017.8mb 48f 50f
8:06 3 5 mph - - 50f
8:00 3 5 mph - - 50f
7:54 3 5 mph 1017.8mb 48f 50f
7:48 3 5 mph 1017.8mb 48f 51f
7:36 5
mph
1017.8mb 48f 51f
7:30  -  mph 1017.7mb 48f -
7:24 5 6 mph 1017.6mb 48f 51f
7:18 5 6 mph 1017.5mb 48f 51f
7:12 5 6 mph 1017.5mb 48f 51f
7:06 6
mph
1017.5mb 48f 51f
7:00 5 6 mph 1017.4mb 48f 51f
6:54 5 6 mph - - 51f
6:48 5 6 mph 1017.4mb 48f 51f
6:36 6
mph
1017.4mb 48f 51f
6:30 6
mph
1017.3mb 48f 51f
6:24 6 7 mph 1017.3mb 48f 51f
6:18 6
mph
1017.2mb 48f 51f
6:12 6 7 mph 1017.2mb 48f 51f
6:06 6 7 mph 1017.2mb 48f 51f
6:00 6 7 mph 1017.1mb 48f 51f
5:54 6 8 mph 1017.1mb 48f 51f
5:48 6 7 mph 1017.1mb 48f 51f
5:36 7 8 mph 1017.1mb 48f 50f
5:30 7
mph
1017mb 48f 50f
5:24 7 8 mph 1017mb 48f 50f
5:18 6 8 mph 1017mb 48f 50f
5:12 7 8 mph 1017mb 48f 50f
5:06 7 9 mph 1016.9mb 48f 50f
5:00 7 9 mph 1016.9mb 48f 50f
4:54 8 9 mph 1016.8mb 48f 50f
4:48 8 9 mph 1016.9mb 48f 50f
4:36 8 10 mph 1016.9mb 48f 50f
4:30 9 10 mph 1016.9mb 48f 50f
4:24 8 10 mph 1017mb 48f 50f
4:18 8 11 mph 1017.1mb 48f 50f
4:12 9 11 mph 1017.1mb 48f 50f
4:06 8 11 mph 1017mb 48f 50f
4:00 10 11 mph 1017mb 48f 50f
3:54 9 11 mph 1017mb 48f 50f
3:48 9 11 mph 1017mb 48f 50f
3:36 10 11 mph 1017mb 48f 50f
3:30 8 11 mph 1017mb 48f 50f
3:24 10 13 mph 1016.9mb 48f 50f
3:18 10 11 mph 1017mb 48f 50f
3:12 9 11 mph 1016.9mb 49f 50f
3:06 9 11 mph 1016.9mb 49f 50f
3:00 9 11 mph 1016.8mb 49f 50f
2:54 9 11 mph 1016.8mb 49f 50f
2:48 9 13 mph 1016.8mb 49f 50f
2:36 7 10 mph 1016.6mb 50f 50f
2:30 9 11 mph 1016.6mb 50f 50f
2:24 8 10 mph 1016.6mb 50f 50f
2:18 7 9 mph 1016.4mb 50f 50f
2:12 8 11 mph 1016.4mb 50f 50f
2:06 8 10 mph 1016.4mb 50f 49f
2:00 9 11 mph 1016.4mb 50f 50f
1:54 8 11 mph 1016.4mb 50f 49f
1:48 8 10 mph 1016.3mb 50f 49f
1:36 8 10 mph 1016.3mb 50f 49f
1:30 8 13 mph 1016.3mb 50f 49f
1:24 8 13 mph 1016.3mb 50f 49f
1:18 8 10 mph 1016.2mb 49f 49f
1:12 7 11 mph 1016.1mb 49f 49f
1:06 8 10 mph 1016.1mb 49f 49f
1:00 8 10 mph 1016.1mb 49f 49f
12:54 8 10 mph 1016.1mb 49f 49f
12:48 8 10 mph 1016.1mb 49f 49f
12:36 9 11 mph 1016mb 49f 49f
12:30 7 10 mph 1016mb 49f 49f
12:24 8 11 mph 1016mb 49f 49f
12:18 9 11 mph 1016mb 49f 48f
12:12 8 11 mph 1015.9mb 49f 49f
12:06 10 11 mph 1015.9mb 48f 48f
12:00 9 11 mph 1015.8mb 48f 49f
11:54 10 11 mph 1015.8mb 48f 48f
11:48 10 13 mph 1015.8mb 48f 48f
11:36 8 10 mph 1015.8mb 48f 48f
11:30 9 11 mph 1015.8mb 48f 48f
11:24 9 11 mph 1015.8mb 48f 47f
11:18 9 11 mph 1015.8mb 48f 47f
11:12 9 11 mph 1015.7mb 48f 47f
11:06 9 11 mph 1015.6mb 48f 47f
11:00 8 11 mph 1015.5mb 48f 47f
10:54 8 10 mph 1015.5mb 48f 47f
10:48 8 10 mph 1015.5mb 48f 47f
10:36 8 9 mph 1015.2mb 48f 47f
10:30 8 10 mph 1015.1mb 48f 47f
10:24 7 9 mph 1015mb 48f 47f
10:18 8 9 mph 1015mb 48f 47f
10:12 7 9 mph 1014.9mb 48f 46f
10:06 6 8 mph 1014.8mb 48f 46f
10:00 6 7 mph 1014.8mb 48f 46f
9:54 5 6 mph 1014.8mb 48f 46f
9:48 3 6 mph 1014.8mb 48f 46f
9:36  -  6 mph - - 47f
9:30 3 6 mph - - 46f
9:24 3 6 mph 1014.8mb 48f 46f
9:18 5 8 mph 1014.9mb 48f 45f
9:12 6 8 mph 1014.8mb 48f 45f
9:06 6 9 mph 1014.8mb 48f 44f
9:00 6 9 mph 1014.8mb 48f 44f
8:54 5 9 mph 1014.7mb 48f 44f
8:48 6 8 mph 1014.6mb 48f 44f
8:36 5 8 mph 1014.6mb 48f 43f
8:30 7 9 mph 1014.6mb 48f 43f
8:24 6 9 mph 1014.5mb 48f 43f
8:18 6 9 mph 1014.5mb 48f 43f
8:12 6 9 mph - - 43f
8:06 5 7 mph 1014.4mb 48f 42f
8:00 3 6 mph 1014.3mb 48f 42f
7:54 3 6 mph 1014.3mb 48f 41f
7:48 6
mph
1014.3mb 47f 40f
7:36 6 7 mph 1014.2mb 47f 40f
7:30 6 9 mph - - 40f
7:24 7 8 mph 1014.2mb 47f 40f
7:18 7 9 mph 1014.1mb 47f 40f
7:12 6 8 mph - - 40f
7:06 7 8 mph 1013.9mb 47f 39f
7:00 7 9 mph 1013.9mb 47f 39f
6:54 7 8 mph 1013.9mb 47f 39f
6:48 7 8 mph 1013.8mb 47f 39f
6:36 7 10 mph 1013.7mb 47f 39f
6:30 7 9 mph 1013.6mb 47f 39f
6:24 8 9 mph 1013.6mb 47f 39f
6:18 7 9 mph 1013.6mb 47f 39f
6:12 7 9 mph - - 39f
6:06 6 8 mph 1013.5mb 47f 39f
6:00 6 8 mph 1013.5mb 47f 39f
5:54 6 7 mph 1013.5mb 47f 39f
5:48 6 9 mph 1013.4mb 47f 39f
5:36 6 10 mph 1013.2mb 47f 39f
5:30 5 9 mph 1013.3mb 47f 39f
5:24 6 9 mph 1013.3mb 47f 39f
5:18 8 10 mph 1013.2mb 47f 38f
5:12 6 7 mph - - 38f
5:06 6 8 mph 1013.1mb 47f 38f
5:00 6 8 mph 1013.2mb 47f 38f
4:54  -  mph 1013.1mb 47f -
4:48 7 9 mph 1013.1mb 47f 38f
4:36 6 8 mph 1013mb 47f 38f
4:30 7 9 mph 1012.9mb 47f 39f
4:24 7 9 mph 1012.9mb 47f 38f
4:18 5 8 mph 1012.9mb 47f 38f
4:12 7 8 mph 1013mb 47f 38f
4:06 7 9 mph 1013mb 47f 39f
4:00 7 8 mph 1013mb 47f 39f
3:54 6 8 mph 1013.1mb 47f 39f
3:48 6 8 mph 1013mb 47f 39f
3:36 7 9 mph 1012.8mb 48f 38f
3:30  -  mph 1012.7mb 48f -
3:24 5 9 mph 1012.7mb 48f 38f
3:18 8 9 mph 1012.7mb 48f 38f
3:12 6 7 mph 1012.7mb 48f 38f
3:06 5 8 mph 1012.7mb 48f 39f
3:00 7 9 mph 1012.7mb 48f 39f
2:54 6 7 mph 1012.7mb 48f 39f
2:48 3 6 mph 1012.6mb 48f 39f
2:36 5 7 mph 1012.6mb 48f 39f
2:30 3 8 mph 1012.6mb 48f 39f
2:24  -  mph 1012.5mb 48f -
2:18 6 8 mph 1012.5mb 48f 39f
2:12 7 9 mph 1012.5mb 48f 39f
2:06 7 9 mph 1012.5mb 48f 39f
2:00 7 9 mph 1012.4mb 48f 39f
1:54 7 8 mph 1012.4mb 48f 39f
1:48 7 8 mph 1012.4mb 48f 40f
1:36 7 9 mph 1012.4mb 48f 40f
1:30 7 9 mph 1012.4mb 48f 40f
1:24 7 9 mph 1012.5mb 48f 40f
1:18 7 8 mph 1012.5mb 48f 40f
1:12 7 9 mph 1012.5mb 48f 40f
1:06 7 9 mph 1012.5mb 48f 40f
1:00 8 9 mph 1012.4mb 49f 40f
12:54 7 9 mph 1012.4mb 49f 40f
12:48 7 8 mph 1012.3mb 49f 40f
12:36 7 8 mph 1012.2mb 48f 40f
12:30 6 8 mph 1012.2mb 49f 40f
12:24 7 9 mph 1012.2mb 49f 40f
12:18 7 9 mph 1012.1mb 49f 40f
12:12 6 9 mph 1012.1mb 49f 40f
12:06 7 8 mph 1012.1mb 49f 40f
12:00 7 8 mph 1012mb 49f 40f
Sex 04/24 11:54 7 9 mph - - 41f
11:48 7 9 mph - - 41f
11:36 7 9 mph - - 41f
11:30 7 8 mph 1012mb 49f 41f
11:24 6 8 mph - - 42f
11:18 7 8 mph 1011.9mb 49f 42f
11:12 6 8 mph 1011.9mb 49f 42f
11:06 6 7 mph - - 42f
11:00 6 8 mph 1012mb 49f 42f
10:54 6
mph
- - 42f
10:48 5 6 mph - - 42f
10:36 5 7 mph 1011.9mb 49f 43f
10:30 5 6 mph 1011.8mb 49f 43f
10:24 3 5 mph 1011.8mb 50f 43f
10:18 2 6 mph 1011.8mb 50f 43f
10:12  -  5 mph 1011.8mb 49f 43f
10:06 5 7 mph 1011.7mb 49f 43f
10:00 6
mph
1011.5mb 49f 43f
9:54 6 7 mph - - 43f
9:48 6
mph
- - 43f
9:36 5 6 mph 1011.5mb 49f 43f
9:30 3 6 mph 1011.6mb 49f 43f
9:24 3 5 mph 1011.5mb 48f 44f
9:18 3
mph
1011.5mb 48f 44f
9:12 2
mph
1011.4mb 48f 44f
9:06 2
mph
- - 45f
9:00  -  2 mph - - 45f
8:54 1 3 mph 1011.3mb 48f 46f
8:48 2 6 mph 1011.2mb 48f 46f
8:36 6 8 mph 1011.2mb 48f 48f
8:30 7 8 mph 1011.1mb 48f 48f
8:24 6
mph
1011.1mb 48f 48f
8:18 6 7 mph 1011.2mb 48f 48f
8:12 6 7 mph 1011.2mb 48f 48f
8:06 6 7 mph 1011.1mb 48f 48f
8:00 6 8 mph 1011mb 48f 48f
7:54 7 8 mph 1011mb 48f 48f
7:48 7 9 mph 1011mb 48f 48f
7:36 8 10 mph 1011mb 48f 48f
7:30 7 10 mph 1011mb 48f 49f
7:24 8 11 mph 1011.1mb 48f 48f
7:18 10 13 mph 1011.1mb 48f 48f
7:12 9 11 mph 1011.1mb 48f 49f
7:06 9 13 mph 1011.1mb 48f 48f
7:00 11 13 mph 1011mb 48f 49f
6:54 10 13 mph 1011mb 48f 49f
6:48 9 11 mph 1010.9mb 48f 49f
6:36 10 13 mph 1010.9mb 48f 49f
6:30 10 13 mph 1010.8mb 48f 49f
6:24 8 11 mph 1010.7mb 48f 49f
6:18 8 11 mph 1010.7mb 48f 49f
6:12 8 11 mph 1010.7mb 48f 49f
6:06 8 10 mph 1010.7mb 48f 49f
6:00 8 10 mph 1010.6mb 48f 49f
5:54 8 10 mph 1010.6mb 48f 49f
5:48 8 10 mph 1010.5mb 48f 48f
5:36 8 10 mph 1010.4mb 48f 49f
5:30 9 11 mph 1010.4mb 48f 48f
5:24 8 11 mph 1010.4mb 48f 49f
5:18 9 11 mph 1010.4mb 48f 48f
5:12 9 11 mph 1010.3mb 48f 49f
5:06 9 11 mph 1010.3mb 48f 49f
5:00 9 11 mph 1010.2mb 48f 49f
4:54 9 11 mph 1010.2mb 48f 49f
4:48 8 11 mph 1010.1mb 47f 49f
4:36 9 11 mph 1010.1mb 47f 49f
4:30 9 11 mph 1010mb 47f 49f
4:24 9 11 mph 1010mb 47f 49f
4:18 10 13 mph 1010mb 47f 49f
4:12 10 13 mph 1009.9mb 47f 49f
4:06 9 13 mph 1009.8mb 47f 49f
4:00 8 14 mph 1009.7mb 47f 49f
3:54 10 14 mph 1009.8mb 47f 49f
3:48 9 14 mph 1009.7mb 47f 49f
3:36 11 15 mph 1009.8mb 47f 49f
3:30 10 15 mph 1009.7mb 47f 49f
3:24 9 13 mph 1009.6mb 47f 49f
3:18 9 11 mph 1009.6mb 47f 49f
3:12 10 13 mph 1009.5mb 47f 49f
3:06 9 13 mph 1009.5mb 47f 49f
3:00 6 11 mph 1009.4mb 47f 49f
2:54 13 17 mph 1009.4mb 48f 49f
2:48 9 13 mph 1009.3mb 48f 49f
2:36 10 13 mph 1009.2mb 48f 49f
2:30 9 10 mph 1009.2mb 48f 49f
2:24 8 13 mph 1009.2mb 48f 49f
2:18 9 14 mph 1009.1mb 48f 49f
2:12 8 14 mph 1009.1mb 48f 49f
2:06 10 14 mph 1009mb 49f 49f
2:00 9 13 mph 1008.9mb 49f 49f
1:54 11 14 mph 1008.9mb 49f 49f
1:48 10 14 mph 1008.8mb 49f 49f
1:36 11 15 mph 1008.5mb 48f 49f
1:30 9 13 mph 1008.5mb 48f 49f
1:24 9 11 mph 1008.5mb 48f 49f
1:18 8 11 mph 1008.5mb 48f 49f
1:12 9 14 mph 1008.5mb 48f 49f
1:06 10 14 mph 1008.5mb 48f 49f
1:00 9 14 mph 1008.5mb 48f 49f
12:54 10 16 mph 1008.6mb 48f 49f
12:48 14 16 mph 1008.6mb 48f 49f
12:36 7 11 mph 1008.5mb 47f 49f
12:30 6 11 mph 1008.5mb 47f 48f
12:24 7 9 mph 1008.6mb 47f 48f
12:18 8 13 mph 1008.6mb 47f 48f